Flight Track Log - Related Links

Times and Time Zones

All times are in EDT time to prevent confusion due to time zone crossing. See the TCF6008 flight status page for this flight to view local times or setup timezone preferences in your user account.

Time Position Orientation Groundspeed Altitude Reporting Facility
EDT Latitude Longitude Course Direction KTS MPH feet Rate Location/Type
Fri 07:22:37 PM 42.9333 -87.9167 71° East 145 167 1,500  Level KMKE
Fri 07:24:55 PM 42.8933 -87.7906 113° Southeast 268 308 6,400 2,430 Climbing Chicago Center
Fri 07:25:00 PM 42.8888 -87.2688 90° East  Level Estimated
Fri 07:25:57 PM 42.8967 -87.6825 88° East 282 325 9,600  Level Chicago Center
Fri 07:26:00 PM 42.8738 -87.1119 90° East  Level Estimated
Fri 07:26:58 PM 42.9003 -87.5600 88° East 311 358 11,000  Level Chicago Center
Fri 07:27:00 PM 42.8585 -86.9551 71° East  Level Estimated
Fri 07:28:00 PM 42.9058 -87.4233 87° East 354 407 13,400  Level Chicago Center
Fri 07:29:02 PM 42.9161 -87.2892 84° East 367 422 15,600 2,000 Climbing Chicago Center
Fri 07:30:03 PM 42.9297 -87.1467 83° East 376 433 17,500 2,146 Climbing Chicago Center
Fri 07:31:05 PM 42.9481 -86.9678 82° East 394 453 20,000 2,129 Climbing Chicago Center
Fri 07:32:07 PM 42.9606 -86.8156 84° East 404 465 21,900 1,756 Climbing Chicago Center
Fri 07:33:08 PM 42.9744 -86.6606 83° East 412 474 23,600 1,512 Climbing Chicago Center
Fri 07:34:10 PM 42.9892 -86.5008 83° East 423 487 25,000 1,355 Climbing Chicago Center
Fri 07:35:12 PM 43.0031 -86.3361 83° East 435 501 26,400 1,366 Climbing Chicago Center
Fri 07:36:13 PM 43.0178 -86.1675 83° East 446 513 27,800 1,220 Climbing Chicago Center
Fri 07:37:15 PM 43.0314 -85.9925 84° East 446 513 28,900 968 Climbing Chicago Center
Fri 07:38:17 PM 43.0469 -85.8067 83° East 459 528 29,800 774 Climbing Chicago Center
Fri 07:39:19 PM 43.0617 -85.6267 84° East 474 545 30,500 732 Climbing Chicago Center
Fri 07:40:20 PM 43.0761 -85.4428 84° East 484 557 31,300 780 Climbing Chicago Center
Fri 07:41:22 PM 43.0906 -85.2592 84° East 487 560 32,100 774 Climbing Chicago Center
Fri 07:42:24 PM 43.1078 -85.0342 84° East 496 571 32,900 439 Climbing Chicago Center
Fri 07:43:25 PM 43.1217 -84.8447 84° East 501 577 33,000 51 Climbing Chicago Center
Fri 07:44:21 PM 43.1317 -84.6744 85° East 497 572 33,000  Level Cleveland Center
Fri 07:45:21 PM 43.1425 -84.4817 86° East 502 578 33,000  Level Cleveland Center
Fri 07:46:21 PM 43.1600 -84.2719 83° East 507 583 33,000  Level Cleveland Center
Fri 07:47:21 PM 43.1722 -84.0733 85° East 507 583 33,000  Level Cleveland Center
Fri 07:48:21 PM 43.1864 -83.8747 84° East 519 597 33,000  Level Cleveland Center
Fri 07:49:21 PM 43.1981 -83.6789 85° East 519 597 33,000  Level Cleveland Center
Fri 07:50:21 PM 43.2053 -83.4883 87° East 508 585 33,000  Level Cleveland Center
Fri 07:51:21 PM 43.1994 -83.2944 92° East 500 575 33,000  Level Cleveland Center
Fri 07:52:21 PM 43.1933 -83.1092 93° East 500 575 33,000  Level Cleveland Center
Fri 07:53:21 PM 43.1847 -82.9150 93° East 505 581 33,000  Level Cleveland Center
Fri 07:54:21 PM 43.1758 -82.7297 94° East 499 574 33,000  Level Cleveland Center
Fri 07:55:21 PM 43.1689 -82.5331 93° East 499 574 33,000  Level Cleveland Center
Fri 07:55:37 PM 43.1667 -82.4667 93° East 510 587 33,000  Level Toronto Center
Fri 07:56:37 PM 43.1500 -82.2833 97° East 510 587 33,000  Level Toronto Center
Fri 07:57:37 PM 43.1333 -82.0833 96° East 510 587 33,000  Level Toronto Center
Fri 07:58:37 PM 43.1333 -81.9000 90° East 510 587 33,000  Level Toronto Center
Fri 07:59:37 PM 43.1167 -81.6833 96° East 500 575 33,000  Level Toronto Center
Fri 08:00:37 PM 43.1000 -81.5000 97° East 500 575 33,000  Level Toronto Center
Fri 08:01:37 PM 43.1000 -81.3167 90° East 500 575 33,000  Level Toronto Center
Fri 08:02:37 PM 43.0833 -81.1333 97° East 480 552 33,000  Level Toronto Center
Fri 08:03:37 PM 43.0667 -80.9500 97° East 480 552 33,000  Level Toronto Center
Fri 08:04:37 PM 43.0667 -80.7667 90° East 470 541 33,000  Level Toronto Center
Fri 08:05:37 PM 43.0667 -80.6167 90° East 460 529 33,000  Level Toronto Center
Fri 08:06:37 PM 43.0500 -80.4333 97° East 460 529 33,000  Level Toronto Center
Fri 08:07:37 PM 43.0333 -80.2667 98° East 460 529 33,000  Level Toronto Center
Fri 08:08:37 PM 43.0333 -80.0833 90° East 460 529 33,000 550 Level Toronto Center
Fri 08:09:37 PM 43.0167 -79.9000 97° East 460 529 34,100 1,000 Climbing Toronto Center
Fri 08:10:37 PM 43.0000 -79.7500 99° East 450 518 35,000 450 Climbing Toronto Center
Fri 08:11:37 PM 42.9833 -79.5667 97° East 450 518 35,000  Level Toronto Center
Fri 08:12:37 PM 42.9833 -79.4000 90° East 460 529 35,000  Level Toronto Center
Fri 08:13:37 PM 42.9667 -79.2167 97° East 460 529 35,000  Level Toronto Center
Fri 08:14:37 PM 42.9500 -79.0333 97° East 460 529 35,000  Level Toronto Center
Fri 08:16:33 PM 42.9375 -78.7456 93° East 458 527 35,000  Level Cleveland Center
Fri 08:17:33 PM 42.9222 -78.5731 97° East 458 527 35,000  Level Cleveland Center
Fri 08:18:32 PM 42.9044 -78.4006 98° East 458 527 35,000  Level Cleveland Center
Fri 08:19:32 PM 42.8867 -78.2342 98° East 458 527 35,000  Level Cleveland Center
Fri 08:20:33 PM 42.8706 -78.0647 97° East 458 527 35,000  Level Cleveland Center
Fri 08:21:33 PM 42.8519 -77.8956 98° East 453 521 35,000  Level Cleveland Center
Fri 08:22:32 PM 42.8333 -77.7264 98° East 448 516 35,000  Level Cleveland Center
Fri 08:23:33 PM 42.8125 -77.5603 100° East 448 516 35,000  Level Cleveland Center
Fri 08:24:32 PM 42.7872 -77.3919 102° East 442 509 35,000  Level Cleveland Center
Fri 08:26:37 PM 42.7333 -77.0000 100° East 460 529 35,000  Level Toronto Center
Fri 08:27:51 PM 42.7072 -76.8400 102° East 458 527 35,000  Level Boston Center
Fri 08:28:48 PM 42.6825 -76.6631 101° East 458 527 35,000  Level Boston Center
Fri 08:29:49 PM 42.6575 -76.4947 101° East 458 527 35,000 -197 Level Boston Center
Fri 08:30:50 PM 42.6322 -76.3208 101° East 458 527 34,600 -545 Descending Boston Center
Fri 08:31:50 PM 42.6103 -76.1672 101° East 453 521 33,900 -645 Descending Boston Center
Fri 08:32:51 PM 42.5844 -75.9936 101° East 459 528 33,300 -645 Descending Boston Center
Fri 08:33:51 PM 42.5564 -75.8228 103° East 459 528 32,600 -712 Descending Boston Center
Fri 08:34:49 PM 42.5303 -75.6467 101° East 464 534 31,900 -718 Descending Boston Center
Fri 08:35:48 PM 42.5056 -75.4847 102° East 478 550 31,200 -950 Descending Boston Center
Fri 08:36:49 PM 42.4711 -75.2775 103° East 478 550 30,000 -1,426 Descending Boston Center
Fri 08:37:50 PM 42.4189 -75.1175 114° Southeast 473 544 28,300 -1,537 Descending Boston Center
Fri 08:38:50 PM 42.3778 -75.0006 115° Southeast 461 531 26,900 -1,550 Descending Boston Center
Fri 08:39:50 PM 42.3167 -74.8408 117° Southeast 417 480 25,200 -1,537 Descending Boston Center
Fri 08:40:51 PM 42.2733 -74.7186 116° Southeast 383 441 23,800 -1,339 Descending Boston Center
Fri 08:41:51 PM 42.2258 -74.5933 117° Southeast 372 428 22,500 -1,373 Descending Boston Center
Fri 08:42:49 PM 42.1819 -74.4769 117° Southeast 360 414 21,100 -1,271 Descending Boston Center
Fri 08:43:49 PM 42.1442 -74.3722 116° Southeast 350 403 20,000 -1,050 Descending Boston Center
Fri 08:44:49 PM 42.0942 -74.2503 119° Southeast 350 403 19,000 -496 Descending Boston Center
Fri 08:45:50 PM 42.0539 -74.1653 123° Southeast 340 391 19,000  Level Boston Center
Fri 08:46:50 PM 41.9972 -74.0519 124° Southeast 334 384 19,000 -151 Level Boston Center
Fri 08:47:49 PM 41.9403 -73.9389 124° Southeast 339 390 18,700 -750 Descending Boston Center
Fri 08:48:50 PM 41.8894 -73.8456 126° Southeast 334 384 17,500 -1,131 Descending Boston Center
Fri 08:49:51 PM 41.8189 -73.8217 166° South 269 310 16,400 -1,059 Descending Boston Center
Fri 08:50:49 PM 41.7458 -73.8231 181° South 258 297 15,400 -1,050 Descending Boston Center
Fri 08:51:51 PM 41.6750 -73.8242 181° South 253 291 14,300 -1,000 Descending Boston Center
Fri 08:52:49 PM 41.6081 -73.8394 190° South 253 291 13,400 -1,031 Descending Boston Center
Fri 08:54:34 PM 41.4833 -73.8667 189° South 251 289 11,500 -1,091 Descending New York TRACON
Fri 08:55:34 PM 41.4167 -73.8667 180° South 257 296 10,400 -1,150 Descending New York TRACON
Fri 08:56:34 PM 41.3500 -73.8167 151° Southeast 271 312 9,200 -700 Descending New York TRACON
Fri 08:57:34 PM 41.3000 -73.7500 135° Southeast 247 284 9,000 -600 Descending New York TRACON
Fri 08:58:34 PM 41.3167 -73.6667 75° East 252 290 8,000 -667 Descending New York TRACON
Fri 09:00:34 PM 41.2833 -73.5000 105° East 210 242 7,000 -633 Descending New York TRACON
Fri 09:01:34 PM 41.2500 -73.4667 143° Southeast 167 192 6,100 -1,100 Descending New York TRACON
Fri 09:02:34 PM 41.2167 -73.4833 201° Southwest 136 157 4,800 -525 Descending New York TRACON
Fri 09:04:00 PM 41.0933 -73.5920 211° Southwest  Level FlightAware Approximate
Fri 09:05:34 PM 41.1333 -73.5833 211° Southwest 123 142 4,000  Level New York TRACON
Fri 09:07:00 PM 41.0414 -73.6374 214° Southwest  Level FlightAware Approximate
Fri 09:07:34 PM 41.0833 -73.6000 214° Southwest 144 166 4,000  Level New York TRACON
Fri 09:08:34 PM 41.0667 -73.6333 236° Southwest 121 139 4,000 -150 Level New York TRACON
Fri 09:10:00 PM 40.9431 -73.7261 210° Southwest  Level FlightAware Approximate
Fri 09:11:34 PM 40.9833 -73.7000 210° Southwest 109 125 3,400  Level New York TRACON
Fri 09:12:34 PM 40.9667 -73.7167 217° Southwest 109 125 3,000 -400 Descending New York TRACON

Login

Don't have an account? Register now (free) for customized features, flight alerts, and more!